Time;durP1;ratioP1;P1;durP2;ratioP2;P2;SDS_P1;SDS_P2;PMS_P1;PMS_P2;Temp;Humidity;BMP_temperature;BMP_pressure;BME280_temperature;BME280_humidity;BME280_pressure;Samples;Min_cycle;Max_cycle;Signal;HPM_P1;HPM_P2
2023/04/27 00:02:06;;;;;;;;;;;;;;;-144.99;97.93;52462.34;5020842;28;19933;-74
2023/04/27 00:04:33;;;;;;;;;;;;;;;-144.99;99.77;52452.16;5024133;28;19991;-73
2023/04/27 00:07:00;;;;;;;;;;;;;;;-144.99;99.43;52456.25;5021436;28;19933;-73
2023/04/27 00:09:28;;;;;;;;;;;;;;;-144.99;99.17;52433.81;5019244;28;19991;-75
2023/04/27 00:11:54;;;;;;;;;;;;;;;-144.99;98.92;52427.72;5014994;28;19938;-75
2023/04/27 00:14:21;;;;;;;;;;;;;;;-144.99;99.03;52460.31;5021657;28;21586;-74
2023/04/27 00:16:48;;;;;;;;;;;;;;;-144.99;98.75;52452.16;5019918;28;19964;-74
2023/04/27 00:19:15;;;;;;;;;;;;;;;-144.99;98.92;52446.06;5020095;28;20388;-74
2023/04/27 00:21:41;;;;;;;;;;;;;;;-144.99;98.80;52446.06;5016556;28;19925;-75
2023/04/27 00:24:08;;;;;;;;;;;;;;;-144.99;100.00;52407.31;5016047;28;19952;-74
2023/04/27 00:26:36;;;;;;;;;;;;;;;-144.99;99.77;52448.09;5023297;28;20069;-74
2023/04/27 00:29:03;;;;;;;;;;;;;;;-144.99;99.44;52431.78;5018699;28;19925;-74
2023/04/27 00:31:29;;;;;;;;;;;;;;;-144.99;98.97;52431.78;5016750;28;19929;-75
2023/04/27 00:33:56;;;;;;;;;;;;;;;-144.99;98.68;52415.47;5015143;28;20292;-74
2023/04/27 00:36:22;;;;;;;;;;;;;;;-144.99;98.73;52501.09;5009309;28;19952;-72
2023/04/27 00:38:49;;;;;;;;;;;;;;;-144.99;99.22;52452.16;5012030;28;20363;-71
2023/04/27 00:41:15;;;;;;;;;;;;;;;-144.99;99.47;52462.34;5018832;28;19960;-69
2023/04/27 00:43:44;;;;;;;;;;;;;;;-144.99;99.58;52427.72;5022514;28;19925;-70
2023/04/27 00:46:12;;;;;;;;;;;;;;;-144.99;99.78;52460.31;5013865;28;19929;-70
2023/04/27 00:48:39;;;;;;;;;;;;;;;-144.99;99.80;52456.25;5006787;28;19937;-71
2023/04/27 00:51:06;;;;;;;;;;;;;;;-144.99;99.82;52452.16;5014701;28;19929;-73
2023/04/27 00:53:33;;;;;;;;;;;;;;;-144.99;100.00;52472.56;5023145;28;20042;-70
2023/04/27 00:55:59;;;;;;;;;;;;;;;-144.99;100.00;52421.59;5019443;28;19925;-70
2023/04/27 00:58:26;;;;;;;;;;;;;;;-144.99;100.00;52456.25;5012503;28;19933;-71
2023/04/27 01:00:54;;;;;;;;;;;;;;;-144.99;100.00;52450.13;5015230;28;19956;-70
2023/04/27 01:03:21;;;;;;;;;;;;;;;-144.99;100.00;52446.06;5015136;28;19929;-70
2023/04/27 01:05:47;;;;;;;;;;;;;;;-144.99;100.00;52429.75;5013003;28;19925;-67
2023/04/27 01:08:14;;;;;;;;;;;;;;;-144.99;100.00;52376.75;5019020;28;19932;-72
2023/04/27 01:10:41;;;;;;;;;;;;;;;-144.99;100.00;52452.16;5011641;28;19925;-72
2023/04/27 01:13:07;;;;;;;;;;;;;;;-144.99;100.00;52435.88;5009596;28;20385;-70
2023/04/27 01:15:34;;;;;;;;;;;;;;;-144.99;100.00;52417.53;5008530;28;19964;-71
2023/04/27 01:18:02;;;;;;;;;;;;;;;-144.99;100.00;52466.44;5012013;28;19933;-71
2023/04/27 01:20:30;;;;;;;;;;;;;;;-144.99;100.00;52472.56;5017624;28;19926;-71
2023/04/27 01:22:57;;;;;;;;;;;;;;;-144.99;100.00;52466.44;5014428;28;19948;-69
2023/04/27 01:25:25;;;;;;;;;;;;;;;-144.99;100.00;52444.03;5013386;28;20019;-67
2023/04/27 01:27:53;;;;;;;;;;;;;;;-144.99;100.00;52417.53;5009037;28;19971;-68
2023/04/27 01:30:19;;;;;;;;;;;;;;;-144.99;100.00;52384.91;5006273;28;19929;-72
2023/04/27 01:32:46;;;;;;;;;;;;;;;-144.99;100.00;52429.75;5017599;28;20291;-74
2023/04/27 01:35:12;;;;;;;;;;;;;;;-144.99;100.00;52411.41;5017140;28;19925;-76
2023/04/27 01:37:39;;;;;;;;;;;;;;;-144.99;100.00;52464.41;5011438;28;19972;-71
2023/04/27 01:40:07;;;;;;;;;;;;;;;-144.99;100.00;52431.78;5013669;28;19971;-70
2023/04/27 01:42:35;;;;;;;;;;;;;;;-144.99;100.00;52444.03;5008308;28;19964;-68
2023/04/27 01:45:02;;;;;;;;;;;;;;;-144.99;100.00;52391.03;5009829;28;20355;-68
2023/04/27 01:47:29;;;;;;;;;;;;;;;-144.99;100.00;52472.56;5006901;28;20462;-70
2023/04/27 01:49:56;;;;;;;;;;;;;;;-144.99;100.00;52427.72;5022130;28;19986;-72
2023/04/27 01:52:22;;;;;;;;;;;;;;;-144.99;100.00;52391.03;5016634;28;20354;-71
2023/04/27 01:54:49;;;;;;;;;;;;;;;-144.99;100.00;52403.25;5024162;28;20167;-72
2023/04/27 01:57:16;;;;;;;;;;;;;;;-144.99;100.00;52429.75;5006814;28;20818;-70
2023/04/27 01:59:44;;;;;;;;;;;;;;;-144.99;100.00;52431.78;5013561;28;19930;-70
2023/04/27 02:02:10;;;;;;;;;;;;;;;-144.99;100.00;52439.94;5009837;28;19968;-71
2023/04/27 02:04:37;;;;;;;;;;;;;;;-144.99;100.00;52427.72;5007230;28;19933;-73
2023/04/27 02:07:04;;;;;;;;;;;;;;;-144.99;100.00;52423.63;5017081;28;19925;-72
2023/04/27 02:09:30;;;;;;;;;;;;;;;-144.99;100.00;52401.22;5033288;28;19973;-72
2023/04/27 02:11:57;;;;;;;;;;;;;;;-144.99;100.00;52439.94;5033150;28;20652;-69
2023/04/27 02:14:23;;;;;;;;;;;;;;;-144.99;99.82;52429.75;5029003;28;19913;-73
2023/04/27 02:16:51;;;;;;;;;;;;;;;-144.99;99.76;52456.25;5039634;28;19960;-72
2023/04/27 02:19:17;;;;;;;;;;;;;;;-144.99;100.00;52448.09;5044119;28;19917;-72
2023/04/27 02:21:44;;;;;;;;;;;;;;;-144.99;100.00;52439.94;5035361;28;19925;-72
2023/04/27 02:24:12;;;;;;;;;;;;;;;-144.99;100.00;52444.03;5038437;28;19917;-72
2023/04/27 02:26:39;;;;;;;;;;;;;;;-144.99;100.00;52415.47;5034013;28;19921;-72
2023/04/27 02:29:06;;;;;;;;;;;;;;;-144.99;100.00;52403.25;5032519;28;19936;-70
2023/04/27 02:31:32;;;;;;;;;;;;;;;-144.99;100.00;52407.31;5040060;28;20334;-72
2023/04/27 02:34:00;;;;;;;;;;;;;;;-144.99;100.00;52484.78;5034932;28;20456;-77
2023/04/27 02:36:27;;;;;;;;;;;;;;;-144.99;100.00;52439.94;5018907;28;19929;-71
2023/04/27 02:38:54;;;;;;;;;;;;;;;-144.99;100.00;52437.91;5020019;28;19940;-67
2023/04/27 02:41:20;;;;;;;;;;;;;;;-144.99;100.00;52439.94;5015656;28;19995;-65
2023/04/27 02:43:47;;;;;;;;;;;;;;;-144.99;100.00;52407.31;5017244;28;20451;-66
2023/04/27 02:46:13;;;;;;;;;;;;;;;-144.99;100.00;52413.44;5013020;28;19926;-67
2023/04/27 02:48:40;;;;;;;;;;;;;;;-144.99;100.00;52468.47;5019584;28;20434;-64
2023/04/27 02:51:08;;;;;;;;;;;;;;;-144.99;100.00;52456.25;5019379;28;20367;-64
2023/04/27 02:53:35;;;;;;;;;;;;;;;-144.99;100.00;52435.88;5014904;28;20436;-71
2023/04/27 02:56:02;;;;;;;;;;;;;;;-144.99;100.00;52391.03;5029144;28;19941;-74
2023/04/27 02:58:28;;;;;;;;;;;;;;;-144.99;100.00;52448.09;5012450;28;20061;-74
2023/04/27 03:00:55;;;;;;;;;;;;;;;-144.99;100.00;52448.09;5014377;28;19937;-75
2023/04/27 03:03:22;;;;;;;;;;;;;;;-144.99;100.00;52435.88;5027141;28;20139;-76
2023/04/27 03:05:48;;;;;;;;;;;;;;;-144.99;100.00;52427.72;5019733;28;20157;-75
2023/04/27 03:08:16;;;;;;;;;;;;;;;-144.99;100.00;52405.28;5018798;28;19925;-76
2023/04/27 03:10:43;;;;;;;;;;;;;;;-144.99;100.00;52435.88;5019572;28;20401;-75
2023/04/27 03:13:10;;;;;;;;;;;;;;;-144.99;100.00;52452.16;5024334;28;19925;-73
2023/04/27 03:15:36;;;;;;;;;;;;;;;-144.99;100.00;52448.09;5026105;28;20406;-72
2023/04/27 03:18:03;;;;;;;;;;;;;;;-144.99;100.00;52462.34;5014152;28;20698;-71
2023/04/27 03:20:29;;;;;;;;;;;;;;;-144.99;100.00;52456.25;5018573;28;19933;-71
2023/04/27 03:22:56;;;;;;;;;;;;;;;-144.99;100.00;52435.88;5015100;28;19937;-70
2023/04/27 03:25:24;;;;;;;;;;;;;;;-144.99;100.00;52431.78;5018360;28;19949;-68
2023/04/27 03:27:51;;;;;;;;;;;;;;;-144.99;100.00;52423.63;5017806;28;20064;-69
2023/04/27 03:30:17;;;;;;;;;;;;;;;-144.99;100.00;52464.41;5019761;28;19956;-69
2023/04/27 03:32:44;;;;;;;;;;;;;;;-144.99;100.00;52439.94;5014050;28;19965;-69
2023/04/27 03:35:11;;;;;;;;;;;;;;;-144.99;100.00;52435.88;5014397;28;20083;-69
2023/04/27 03:37:37;;;;;;;;;;;;;;;-144.99;100.00;52448.09;5016798;28;19964;-74
2023/04/27 03:40:06;;;;;;;;;;;;;;;-144.99;100.00;52395.09;5012861;28;19934;-71
2023/04/27 03:42:34;;;;;;;;;;;;;;;-144.99;100.00;52444.03;5013056;28;19948;-70
2023/04/27 03:45:00;;;;;;;;;;;;;;;-144.99;100.00;52431.78;5018060;28;20409;-71
2023/04/27 03:47:27;;;;;;;;;;;;;;;-144.99;100.00;52421.59;5015541;28;20033;-72
2023/04/27 03:49:53;;;;;;;;;;;;;;;-144.99;100.00;52460.31;5014050;28;19925;-72
2023/04/27 03:52:20;;;;;;;;;;;;;;;-144.99;100.00;52427.72;5014446;28;19936;-73
2023/04/27 03:54:46;;;;;;;;;;;;;;;-144.99;100.00;52439.94;5013904;28;19929;-71
2023/04/27 03:57:13;;;;;;;;;;;;;;;-144.99;100.00;52464.41;5008718;28;20177;-71
2023/04/27 03:59:41;;;;;;;;;;;;;;;-144.99;100.00;52458.28;5016499;28;19926;-72
2023/04/27 04:02:08;;;;;;;;;;;;;;;-144.99;100.00;52450.13;5020259;28;20014;-72
2023/04/27 04:04:35;;;;;;;;;;;;;;;-144.99;100.00;52423.63;5012796;28;19929;-55
2023/04/27 04:07:04;;;;;;;;;;;;;;;-144.99;100.00;52403.25;5012604;28;20001;-69
2023/04/27 04:09:30;;;;;;;;;;;;;;;-144.99;100.00;52427.72;5017848;28;19929;-67
2023/04/27 04:11:57;;;;;;;;;;;;;;;-144.99;100.00;52415.47;5009876;28;19993;-67
2023/04/27 04:14:23;;;;;;;;;;;;;;;-144.99;100.00;52427.72;5014883;28;19996;-67
2023/04/27 04:16:51;;;;;;;;;;;;;;;-144.99;100.00;52439.94;5014944;28;19978;-67
2023/04/27 04:19:17;;;;;;;;;;;;;;;-144.99;100.00;52407.31;5009762;28;19925;-68
2023/04/27 04:21:44;;;;;;;;;;;;;;;-144.99;100.00;52415.47;5021252;28;19979;-67
2023/04/27 04:24:11;;;;;;;;;;;;;;;-144.99;100.00;52433.81;5009760;28;20300;-68
2023/04/27 04:26:38;;;;;;;;;;;;;;;-144.99;100.00;52388.97;5015710;28;19930;-67
2023/04/27 04:29:04;;;;;;;;;;;;;;;-144.99;100.00;52427.72;5011635;28;20080;-67
2023/04/27 04:31:32;;;;;;;;;;;;;;;-144.99;100.00;52431.78;5017030;28;19992;-68
2023/04/27 04:34:00;;;;;;;;;;;;;;;-144.99;100.00;52411.41;5019167;28;20401;-66
2023/04/27 04:36:27;;;;;;;;;;;;;;;-144.99;100.00;52427.72;5011349;28;19987;-67
2023/04/27 04:38:53;;;;;;;;;;;;;;;-144.99;100.00;52433.81;5014238;28;20039;-67
2023/04/27 04:41:20;;;;;;;;;;;;;;;-144.99;100.00;52423.63;5018576;28;19932;-67
2023/04/27 04:43:48;;;;;;;;;;;;;;;-144.99;100.00;52456.25;5018433;28;19972;-67
2023/04/27 04:46:15;;;;;;;;;;;;;;;-144.99;100.00;52423.63;5013449;28;19925;-67
2023/04/27 04:48:41;;;;;;;;;;;;;;;-144.99;100.00;52452.16;5020279;28;19932;-67
2023/04/27 04:51:09;;;;;;;;;;;;;;;-144.99;100.00;52456.25;5020584;28;20290;-68
2023/04/27 04:53:36;;;;;;;;;;;;;;;-144.99;100.00;52382.88;5016631;28;20018;-67
2023/04/27 04:56:10;;;;;;;;;;;;;;;-144.99;100.00;52415.47;5018412;28;20413;-68
2023/04/27 04:58:36;;;;;;;;;;;;;;;-144.99;100.00;52435.88;5021434;28;19929;-67
2023/04/27 05:01:03;;;;;;;;;;;;;;;-144.99;100.00;52399.19;5010131;28;19929;-68
2023/04/27 05:03:29;;;;;;;;;;;;;;;-144.99;100.00;52415.47;5019043;28;19930;-67
2023/04/27 05:05:56;;;;;;;;;;;;;;;-144.99;100.00;52419.56;5020139;28;19929;-67
2023/04/27 05:08:24;;;;;;;;;;;;;;;-144.99;100.00;52429.75;5010186;28;19955;-68
2023/04/27 05:10:50;;;;;;;;;;;;;;;-144.99;100.00;52444.03;5012849;28;20304;-66
2023/04/27 05:13:17;;;;;;;;;;;;;;;-144.99;100.00;52433.81;5008570;28;19984;-68
2023/04/27 05:15:43;;;;;;;;;;;;;;;-144.99;100.00;52427.72;5010566;28;20332;-65
2023/04/27 05:18:10;;;;;;;;;;;;;;;-144.99;100.00;52407.31;5012906;28;20001;-68
2023/04/27 05:20:36;;;;;;;;;;;;;;;-144.99;100.00;52407.31;5009310;28;20030;-67
2023/04/27 05:23:03;;;;;;;;;;;;;;;-144.99;100.00;52423.63;5008616;28;19972;-67
2023/04/27 05:25:31;;;;;;;;;;;;;;;-144.99;100.00;52407.31;5009075;28;20116;-67
2023/04/27 05:27:58;;;;;;;;;;;;;;;-144.99;100.00;52366.56;5008145;28;20075;-65
2023/04/27 05:30:26;;;;;;;;;;;;;;;-144.99;100.00;52409.38;5009584;28;19999;-66
2023/04/27 05:32:52;;;;;;;;;;;;;;;-144.99;99.93;52444.03;5017956;28;19981;-67
2023/04/27 05:35:19;;;;;;;;;;;;;;;-144.99;100.00;52399.19;5016773;28;19925;-67
2023/04/27 05:37:46;;;;;;;;;;;;;;;-144.99;99.91;52370.63;5011269;28;19937;-67
2023/04/27 05:40:12;;;;;;;;;;;;;;;-144.99;98.62;52374.72;5012719;28;19968;-66
2023/04/27 05:42:40;;;;;;;;;;;;;;;-144.99;98.61;52407.31;5008308;28;19926;-66
2023/04/27 05:45:07;;;;;;;;;;;;;;;-144.99;98.16;52378.78;5009868;28;19930;-67
2023/04/27 05:47:34;;;;;;;;;;;;;;;-144.99;98.07;52391.03;5008941;28;20012;-67
2023/04/27 05:50:00;;;;;;;;;;;;;;;-144.99;97.48;52380.84;5016649;28;19972;-67
2023/04/27 05:52:29;;;;;;;;;;;;;;;-144.99;96.65;52403.25;5019004;28;20324;-67
2023/04/27 05:54:57;;;;;;;;;;;;;;;-144.99;96.37;52356.38;5024089;28;19929;-68
2023/04/27 05:57:23;;;;;;;;;;;;;;;-144.99;95.93;52384.91;5013543;28;19988;-67
2023/04/27 05:59:51;;;;;;;;;;;;;;;-144.99;95.63;52346.19;5015693;28;19957;-66
2023/04/27 06:02:18;;;;;;;;;;;;;;;-144.99;95.52;52374.72;5020225;28;20007;-67
2023/04/27 06:04:45;;;;;;;;;;;;;;;-144.99;95.80;52386.94;5015935;28;19926;-66
2023/04/27 06:07:12;;;;;;;;;;;;;;;-144.99;95.60;52382.88;5007857;28;19929;-67
2023/04/27 06:09:38;;;;;;;;;;;;;;;-144.99;95.42;52399.19;5016077;28;20063;-67
2023/04/27 06:12:05;;;;;;;;;;;;;;;-144.99;94.81;52384.91;5012728;28;19994;-67
2023/04/27 06:14:32;;;;;;;;;;;;;;;-144.99;94.53;52362.50;5012789;28;20200;-66
2023/04/27 06:17:00;;;;;;;;;;;;;;;-144.99;93.97;52444.03;5008887;28;20004;-66
2023/04/27 06:19:26;;;;;;;;;;;;;;;-144.99;93.73;52407.31;5016324;28;20022;-66
2023/04/27 06:21:53;;;;;;;;;;;;;;;-144.99;92.81;52403.25;5016020;28;20179;-67
2023/04/27 06:24:20;;;;;;;;;;;;;;;-144.99;91.71;52415.47;5008821;28;19954;-67
2023/04/27 06:26:46;;;;;;;;;;;;;;;-144.99;90.56;52386.94;5015439;28;19933;-66
2023/04/27 06:29:13;;;;;;;;;;;;;;;-144.99;91.22;52352.28;5015753;28;20020;-67
2023/04/27 06:31:40;;;;;;;;;;;;;;;-144.99;90.24;52391.03;5012118;28;20382;-66
2023/04/27 06:34:07;;;;;;;;;;;;;;;-144.99;88.48;52370.63;5008645;28;19929;-67
2023/04/27 06:36:34;;;;;;;;;;;;;;;-144.99;88.26;52425.66;5009324;28;19984;-67
2023/04/27 06:39:00;;;;;;;;;;;;;;;-144.99;87.79;52382.88;5012134;28;20481;-67
2023/04/27 06:41:27;;;;;;;;;;;;;;;-144.99;88.12;52378.78;5022815;28;19932;-67
2023/04/27 06:43:53;;;;;;;;;;;;;;;-144.99;87.88;52366.56;5013154;28;19937;-67
2023/04/27 06:46:20;;;;;;;;;;;;;;;-144.99;87.35;52401.22;5014525;28;19929;-67
2023/04/27 06:48:47;;;;;;;;;;;;;;;-144.99;86.75;52370.63;5013452;28;20434;-68
2023/04/27 06:51:15;;;;;;;;;;;;;;;-144.99;86.56;52378.78;5016222;28;20467;-67
2023/04/27 06:53:41;;;;;;;;;;;;;;;-144.99;86.98;52395.09;5024578;28;20031;-68
2023/04/27 06:56:11;;;;;;;;;;;;;;;-144.99;86.51;52358.41;5025768;28;19944;-69
2023/04/27 06:58:38;;;;;;;;;;;;;;;-144.99;86.72;52362.50;5010828;28;19974;-68
2023/04/27 07:01:04;;;;;;;;;;;;;;;-144.99;84.87;52333.94;5010817;28;19932;-67
2023/04/27 07:03:34;;;;;;;;;;;;;;;-144.99;85.05;52378.78;5010840;28;20383;-67
2023/04/27 07:06:00;;;;;;;;;;;;;;;-144.99;84.54;52366.56;5015499;28;19955;-67
2023/04/27 07:08:28;;;;;;;;;;;;;;;-144.99;82.96;52374.72;5012007;28;19931;-67
2023/04/27 07:10:55;;;;;;;;;;;;;;;-144.99;83.12;52374.72;5021824;28;19933;-67
2023/04/27 07:13:22;;;;;;;;;;;;;;;-144.99;83.81;52370.63;5019055;28;19929;-67
2023/04/27 07:15:48;;;;;;;;;;;;;;;-144.99;83.68;52380.84;5010253;28;19964;-67
2023/04/27 07:18:15;;;;;;;;;;;;;;;-144.99;84.04;52386.94;5018262;28;20362;-67
2023/04/27 07:20:42;;;;;;;;;;;;;;;-144.99;83.07;52350.25;5011331;28;19926;-67
2023/04/27 07:23:08;;;;;;;;;;;;;;;-144.99;82.89;52382.88;5011190;28;19961;-67
2023/04/27 07:25:36;;;;;;;;;;;;;;;-144.99;82.54;52386.94;5020657;28;19953;-68
2023/04/27 07:28:03;;;;;;;;;;;;;;;-144.99;82.51;52382.88;5017329;28;20342;-67
2023/04/27 07:30:29;;;;;;;;;;;;;;;-144.99;82.55;52362.50;5010114;28;19952;-66
2023/04/27 07:32:56;;;;;;;;;;;;;;;-144.99;81.37;52350.25;5015707;28;19938;-67
2023/04/27 07:35:22;;;;;;;;;;;;;;;-144.99;80.52;52342.09;5016921;28;20402;-67
2023/04/27 07:37:50;;;;;;;;;;;;;;;-144.99;79.84;52338.03;5013898;28;19979;-67
2023/04/27 07:40:17;;;;;;;;;;;;;;;-144.99;79.26;52374.72;5013785;28;19969;-67
2023/04/27 07:42:46;;;;;;;;;;;;;;;-144.99;79.22;52354.34;5021743;28;19929;-67
2023/04/27 07:45:12;;;;;;;;;;;;;;;-144.99;77.78;52362.50;5013094;28;19933;-67
2023/04/27 07:47:39;;;;;;;;;;;;;;;-144.99;77.54;52338.03;5017031;28;20323;-67
2023/04/27 07:50:07;;;;;;;;;;;;;;;-144.99;77.62;52350.25;5010399;28;19925;-67
2023/04/27 07:52:33;;;;;;;;;;;;;;;-144.99;77.74;52319.69;5009841;28;20402;-68
2023/04/27 07:55:00;;;;;;;;;;;;;;;-144.99;78.49;52313.56;5027161;28;19928;-66
2023/04/27 07:57:27;;;;;;;;;;;;;;;-144.99;75.19;52321.72;5019694;28;19936;-68
2023/04/27 07:59:56;;;;;;;;;;;;;;;-144.99;74.16;52342.09;5024736;28;20730;-69
2023/04/27 08:02:23;;;;;;;;;;;;;;;-144.99;72.51;52313.56;5011075;28;19937;-67
2023/04/27 08:04:49;;;;;;;;;;;;;;;-144.99;72.00;52323.75;5022902;28;20021;-67
2023/04/27 08:07:16;;;;;;;;;;;;;;;-144.99;72.25;52354.34;5010123;28;19991;-67
2023/04/27 08:09:42;;;;;;;;;;;;;;;-144.99;72.63;52340.06;5011254;28;19925;-67
2023/04/27 08:12:09;;;;;;;;;;;;;;;-144.99;73.04;52358.41;5022842;28;20346;-67
2023/04/27 08:14:36;;;;;;;;;;;;;;;-144.99;73.98;52338.03;5009487;28;19926;-67
2023/04/27 08:17:04;;;;;;;;;;;;;;;-144.99;74.11;52378.78;5014934;28;20003;-67
2023/04/27 08:19:30;;;;;;;;;;;;;;;-144.99;74.14;52378.78;5022251;28;20398;-67
2023/04/27 08:21:57;;;;;;;;;;;;;;;-144.99;72.77;52366.56;5022217;28;19983;-67
2023/04/27 08:24:23;;;;;;;;;;;;;;;-144.99;72.83;52325.81;5020632;28;20010;-67
2023/04/27 08:26:50;;;;;;;;;;;;;;;-144.99;73.13;52344.16;5018102;28;20403;-67
2023/04/27 08:29:16;;;;;;;;;;;;;;;-144.99;73.19;52321.72;5010383;28;20039;-68
2023/04/27 08:31:43;;;;;;;;;;;;;;;-144.99;71.01;52313.56;5014339;28;20350;-67
2023/04/27 08:34:11;;;;;;;;;;;;;;;-144.99;71.05;52313.56;5010888;28;19991;-68
2023/04/27 08:36:37;;;;;;;;;;;;;;;-144.99;69.75;52340.06;5012631;28;19930;-67
2023/04/27 08:39:06;;;;;;;;;;;;;;;-144.99;70.67;52370.63;5016300;28;19929;-68
2023/04/27 08:41:32;;;;;;;;;;;;;;;-144.99;71.42;52403.25;5013302;28;19933;-68
2023/04/27 08:43:59;;;;;;;;;;;;;;;-144.99;71.69;52329.88;5016301;28;19930;-68
2023/04/27 08:46:26;;;;;;;;;;;;;;;-144.99;72.84;52309.50;5009686;28;20379;-68
2023/04/27 08:48:52;;;;;;;;;;;;;;;-144.99;73.25;52299.31;5015650;28;19933;-68
2023/04/27 08:51:21;;;;;;;;;;;;;;;-144.99;72.00;52329.88;5017457;28;19937;-68
2023/04/27 08:53:48;;;;;;;;;;;;;;;-144.99;70.43;52342.09;5014992;28;19933;-69
2023/04/27 08:56:15;;;;;;;;;;;;;;;-144.99;69.24;52358.41;5015016;28;20330;-68
2023/04/27 08:58:41;;;;;;;;;;;;;;;-144.99;69.45;52327.84;5016761;28;19968;-68
2023/04/27 09:01:08;;;;;;;;;;;;;;;-144.99;70.03;52325.81;5021316;28;20444;-69
2023/04/27 09:03:35;;;;;;;;;;;;;;;-144.99;70.28;52319.69;5015221;28;20348;-68
2023/04/27 09:06:02;;;;;;;;;;;;;;;-144.99;69.78;52297.25;5020550;28;19972;-68
2023/04/27 09:08:40;;;;;;;;;;;;;;;-144.99;68.03;52313.56;5013511;28;19930;-67
2023/04/27 09:11:07;;;;;;;;;;;;;;;-144.99;67.77;52329.88;5010623;28;19996;-69
2023/04/27 09:13:36;;;;;;;;;;;;;;;-144.99;68.36;52329.88;5018724;28;19936;-67
2023/04/27 09:16:03;;;;;;;;;;;;;;;-144.99;66.87;52325.81;5008472;28;19933;-69
2023/04/27 09:18:32;;;;;;;;;;;;;;;-144.99;67.68;52329.88;5010673;28;20362;-68
2023/04/27 09:20:59;;;;;;;;;;;;;;;-144.99;68.35;52321.72;5016618;28;20457;-67
2023/04/27 09:23:27;;;;;;;;;;;;;;;-144.99;69.00;52350.25;5012812;28;19929;-68
2023/04/27 09:25:55;;;;;;;;;;;;;;;-144.99;67.32;52297.25;5010318;28;20487;-68
2023/04/27 09:28:22;;;;;;;;;;;;;;;-144.99;67.48;52346.19;5018226;28;19929;-68
2023/04/27 09:30:52;;;;;;;;;;;;;;;-144.99;67.24;52362.50;5010519;28;20370;-67
2023/04/27 09:33:22;;;;;;;;;;;;;;;-144.99;66.66;52295.22;5019744;28;19933;-68
2023/04/27 09:35:49;;;;;;;;;;;;;;;-144.99;66.07;52317.66;5014569;28;19929;-68
2023/04/27 09:38:16;;;;;;;;;;;;;;;-144.99;66.30;52293.19;5015836;28;19925;-68
2023/04/27 09:40:43;;;;;;;;;;;;;;;-144.99;66.09;52293.19;5013628;28;19929;-68
2023/04/27 09:43:11;;;;;;;;;;;;;;;-144.99;65.68;52297.25;5010312;28;19937;-68
2023/04/27 09:45:38;;;;;;;;;;;;;;;-144.99;64.03;52297.25;5008570;28;20012;-69
2023/04/27 09:48:05;;;;;;;;;;;;;;;-144.99;63.97;52299.31;5013943;28;20270;-69
2023/04/27 09:50:34;;;;;;;;;;;;;;;-144.99;64.78;52285.03;5008568;28;19987;-68
2023/04/27 09:53:01;;;;;;;;;;;;;;;-144.99;64.96;52317.66;5017457;28;19930;-69
2023/04/27 09:55:30;;;;;;;;;;;;;;;-144.99;65.51;52329.88;5025949;28;19930;-68
2023/04/27 09:58:06;;;;;;;;;;;;;;;-144.99;66.04;52348.22;5018245;28;19975;-69
2023/04/27 10:00:42;;;;;;;;;;;;;;;-144.99;66.45;52333.94;5015280;28;20040;-69
2023/04/27 10:03:15;;;;;;;;;;;;;;;-144.99;66.62;52342.09;5017829;28;19925;-69
2023/04/27 10:06:18;;;;;;;;;;;;;;;-144.99;66.09;52260.56;5027183;28;20425;-69
2023/04/27 10:08:45;;;;;;;;;;;;;;;-144.99;65.40;52289.13;5022848;28;19949;-69
2023/04/27 10:11:15;;;;;;;;;;;;;;;-144.99;65.20;52325.81;5020968;28;19987;-69
2023/04/27 10:13:50;;;;;;;;;;;;;;;-144.99;65.68;52311.53;5022003;28;19968;-69
2023/04/27 10:16:18;;;;;;;;;;;;;;;-144.99;65.23;52317.66;5017948;28;19965;-69
2023/04/27 10:18:51;;;;;;;;;;;;;;;-144.99;64.76;52344.16;5021926;28;19988;-69
2023/04/27 10:21:18;;;;;;;;;;;;;;;-144.99;64.90;52325.81;5021567;28;19937;-69
2023/04/27 10:23:49;;;;;;;;;;;;;;;-144.99;65.46;52297.25;5022262;28;19925;-68
2023/04/27 10:26:22;;;;;;;;;;;;;;;-144.99;65.78;52331.91;5021006;28;19925;-68
2023/04/27 10:28:56;;;;;;;;;;;;;;;-144.99;66.80;52356.38;5014167;28;20062;-69
2023/04/27 10:31:28;;;;;;;;;;;;;;;-144.99;67.63;52319.69;5013728;28;20048;-67
2023/04/27 10:34:05;;;;;;;;;;;;;;;-144.99;68.07;52285.03;5012608;28;20009;-69
2023/04/27 10:36:34;;;;;;;;;;;;;;;-144.99;68.05;52305.41;5020267;28;19929;-69
2023/04/27 10:39:00;;;;;;;;;;;;;;;-144.99;70.01;52333.94;5020344;28;19929;-69
2023/04/27 10:41:33;;;;;;;;;;;;;;;-144.99;71.72;52407.31;5016876;28;19945;-68
2023/04/27 10:44:13;;;;;;;;;;;;;;;-144.99;73.10;52356.38;5012270;28;19988;-68
2023/04/27 10:46:51;;;;;;;;;;;;;;;-144.99;73.78;52342.09;5020503;28;19976;-68
2023/04/27 10:49:17;;;;;;;;;;;;;;;-144.99;72.97;52333.94;5021702;28;19925;-69
2023/04/27 10:51:44;;;;;;;;;;;;;;;-144.99;72.62;52354.34;5012138;28;19926;-68
2023/04/27 10:54:11;;;;;;;;;;;;;;;-144.99;71.86;52354.34;5028177;28;19990;-68
2023/04/27 10:56:37;;;;;;;;;;;;;;;-144.99;70.91;52344.16;5019570;28;19979;-67
2023/04/27 10:59:04;;;;;;;;;;;;;;;-144.99;69.78;52354.34;5022467;28;19971;-67
2023/04/27 11:01:31;;;;;;;;;;;;;;;-144.99;69.56;52329.88;5020291;28;19929;-67
2023/04/27 11:03:59;;;;;;;;;;;;;;;-144.99;69.45;52299.31;5018061;28;19984;-67
2023/04/27 11:06:27;;;;;;;;;;;;;;;-144.99;68.12;52321.72;5026467;28;20003;-68
2023/04/27 11:08:53;;;;;;;;;;;;;;;-144.99;66.61;52297.25;5018523;28;19951;-68
2023/04/27 11:11:21;;;;;;;;;;;;;;;-144.99;68.75;52329.88;5021278;28;19972;-67
2023/04/27 11:13:48;;;;;;;;;;;;;;;-144.99;68.82;52388.97;5015525;28;19972;-68
2023/04/27 11:16:15;;;;;;;;;;;;;;;-144.99;69.20;52336.00;5012013;28;19941;-67
2023/04/27 11:18:42;;;;;;;;;;;;;;;-144.99;68.24;52358.41;5015502;28;19929;-68
2023/04/27 11:21:11;;;;;;;;;;;;;;;-144.99;67.29;52350.25;5011377;28;19965;-68
2023/04/27 11:23:38;;;;;;;;;;;;;;;-144.99;68.71;52382.88;5012608;28;19934;-68
2023/04/27 11:26:13;;;;;;;;;;;;;;;-144.99;70.48;52391.03;5022969;28;20029;-68
2023/04/27 11:28:40;;;;;;;;;;;;;;;-144.99;71.89;52397.13;5014081;28;19925;-68
2023/04/27 11:31:06;;;;;;;;;;;;;;;-144.99;72.04;52399.19;5014813;28;20063;-68
2023/04/27 11:33:33;;;;;;;;;;;;;;;-144.99;71.48;52374.72;5013056;28;19980;-67
2023/04/27 11:36:00;;;;;;;;;;;;;;;-144.99;70.94;52378.78;5022609;28;20373;-67
2023/04/27 11:38:33;;;;;;;;;;;;;;;-144.99;70.94;52380.84;5016299;28;20039;-68
2023/04/27 11:41:00;;;;;;;;;;;;;;;-144.99;71.17;52368.59;5014121;28;19992;-68
2023/04/27 11:43:27;;;;;;;;;;;;;;;-144.99;71.02;52366.56;5012400;28;19929;-67
2023/04/27 11:45:55;;;;;;;;;;;;;;;-144.99;71.18;52313.56;5010730;28;19929;-67
2023/04/27 11:48:22;;;;;;;;;;;;;;;-144.99;71.69;52366.56;5015805;28;20359;-67
2023/04/27 11:50:50;;;;;;;;;;;;;;;-144.99;72.22;52386.94;5012771;28;20335;-67
2023/04/27 11:53:16;;;;;;;;;;;;;;;-144.99;71.82;52350.25;5014008;28;19925;-68
2023/04/27 11:55:44;;;;;;;;;;;;;;;-144.99;72.07;52362.50;5034277;28;19929;-68
2023/04/27 11:58:14;;;;;;;;;;;;;;;-144.99;72.99;52374.72;5014832;28;20095;-67
2023/04/27 12:00:40;;;;;;;;;;;;;;;-144.99;72.71;52395.09;5022617;28;20386;-67
2023/04/27 12:03:07;;;;;;;;;;;;;;;-144.99;72.60;52378.78;5013096;28;19979;-68
2023/04/27 12:05:34;;;;;;;;;;;;;;;-144.99;71.27;52344.16;5028481;28;19983;-68
2023/04/27 12:08:00;;;;;;;;;;;;;;;-144.99;71.26;52352.28;5011866;28;19986;-68
2023/04/27 12:10:27;;;;;;;;;;;;;;;-144.99;71.19;52356.38;5018911;28;20302;-68
2023/04/27 12:12:55;;;;;;;;;;;;;;;-144.99;70.37;52344.16;5010593;28;19926;-68
2023/04/27 12:15:21;;;;;;;;;;;;;;;-144.99;70.17;52346.19;5027775;28;19968;-68
2023/04/27 12:17:48;;;;;;;;;;;;;;;-144.99;70.32;52338.03;5011935;28;20295;-68
2023/04/27 12:20:14;;;;;;;;;;;;;;;-144.99;70.51;52362.50;5019863;28;19925;-68
2023/04/27 12:22:41;;;;;;;;;;;;;;;-144.99;70.54;52342.09;5015645;28;19969;-68
2023/04/27 12:25:08;;;;;;;;;;;;;;;-144.99;70.22;52374.72;5017323;28;19960;-68